Time;durP1;ratioP1;P1;durP2;ratioP2;P2;SDS_P1;SDS_P2;PMS_P1;PMS_P2;Temp;Humidity;BMP_temperature;BMP_pressure;BME280_temperature;BME280_humidity;BME280_pressure;Samples;Min_cycle;Max_cycle;Signal;HPM_P1;HPM_P2
2022/01/02 00:00:09;;;;;;;13.70;9.50;;;;;;;7.52;92.41;99632.38;2190242;81;21012;-85
2022/01/02 00:03:13;;;;;;;16.50;8.93;;;;;;;7.50;92.50;99641.83;2173365;81;20995;-83
2022/01/02 00:06:14;;;;;;;16.37;9.90;;;;;;;7.51;92.48;99642.71;2168545;82;21023;-84
2022/01/02 00:09:14;;;;;;;12.17;9.37;;;;;;;7.48;92.36;99636.98;2180485;82;20984;-84
2022/01/02 00:12:15;;;;;;;13.70;9.20;;;;;;;7.46;92.39;99641.66;2180530;82;21057;-84
2022/01/02 00:15:16;;;;;;;11.53;9.00;;;;;;;7.44;92.55;99633.81;2180336;81;20984;-83
2022/01/02 00:18:16;;;;;;;17.53;10.27;;;;;;;7.43;92.40;99635.05;2179956;82;20969;-85
2022/01/02 00:21:17;;;;;;;14.90;10.97;;;;;;;7.39;92.33;99634.05;2180397;82;20979;-85
2022/01/02 00:24:20;;;;;;;14.20;10.53;;;;;;;7.38;92.33;99627.50;2179828;82;21000;-84
2022/01/02 00:27:20;;;;;;;14.30;11.77;;;;;;;7.35;92.38;99617.89;2180132;81;21032;-84
2022/01/02 00:30:20;;;;;;;17.27;11.67;;;;;;;7.29;92.42;99617.66;2179562;82;21459;-84
2022/01/02 00:33:21;;;;;;;17.23;11.40;;;;;;;7.24;92.43;99614.89;2179423;82;20972;-83
2022/01/02 00:36:22;;;;;;;13.53;10.27;;;;;;;7.22;92.61;99615.25;2179734;82;20996;-81
2022/01/02 00:39:22;;;;;;;14.07;10.30;;;;;;;7.22;92.65;99617.84;2179851;82;20929;-82
2022/01/02 00:42:23;;;;;;;13.10;9.60;;;;;;;7.21;92.71;99613.48;2179535;82;20968;-83
2022/01/02 00:45:24;;;;;;;12.60;9.13;;;;;;;7.20;92.66;99618.20;2179731;81;20964;-83
2022/01/02 00:48:24;;;;;;;13.03;8.57;;;;;;;7.18;92.71;99619.86;2179952;82;21313;-82
2022/01/02 00:51:25;;;;;;;11.03;8.93;;;;;;;7.18;92.82;99618.56;2180091;82;21294;-84
2022/01/02 00:54:27;;;;;;;10.10;8.70;;;;;;;7.19;92.82;99615.55;2180605;82;20913;-82
2022/01/02 00:57:28;;;;;;;8.57;7.43;;;;;;;7.19;92.85;99616.85;2180530;82;20956;-83
2022/01/02 01:00:28;;;;;;;11.00;7.93;;;;;;;7.19;92.81;99618.15;2180130;82;20976;-84
2022/01/02 01:03:31;;;;;;;12.00;9.33;;;;;;;7.21;92.61;99603.52;2163336;82;21012;-83
2022/01/02 01:06:31;;;;;;;12.17;9.07;;;;;;;7.21;92.61;99603.52;2185141;81;21008;-84
2022/01/02 01:09:32;;;;;;;15.43;10.23;;;;;;;7.22;92.76;99603.56;2189847;81;20957;-83
2022/01/02 01:12:33;;;;;;;15.87;10.90;;;;;;;7.21;92.74;99598.31;2190374;81;21383;-82
2022/01/02 01:15:34;;;;;;;17.43;11.40;;;;;;;7.19;92.74;99593.06;2190282;81;21005;-82
2022/01/02 01:18:34;;;;;;;17.20;11.67;;;;;;;7.17;92.78;99591.24;2189986;81;20951;-82
2022/01/02 01:21:35;;;;;;;15.03;11.40;;;;;;;7.16;92.71;99598.14;2190573;81;20983;-83
2022/01/02 01:24:36;;;;;;;18.53;11.93;;;;;;;7.17;92.87;99599.03;2190206;81;20992;-83
2022/01/02 01:27:36;;;;;;;16.90;11.37;;;;;;;7.18;92.82;99594.31;2190226;81;21401;-83
2022/01/02 01:30:38;;;;;;;19.13;12.23;;;;;;;7.18;92.85;99590.00;2190109;81;21015;-83
2022/01/02 01:33:39;;;;;;;13.70;10.37;;;;;;;7.18;92.89;99587.41;2190074;81;20980;-84
2022/01/02 01:39:42;;;;;;;18.07;11.50;;;;;;;7.18;92.82;99583.52;2172933;81;20959;-83
2022/01/02 01:42:45;;;;;;;14.07;9.73;;;;;;;7.17;92.73;99587.34;2189784;81;20976;-83
2022/01/02 01:45:45;;;;;;;13.23;10.37;;;;;;;7.16;92.80;99582.56;2145047;83;21026;-84
2022/01/02 01:48:46;;;;;;;18.20;10.40;;;;;;;7.16;92.85;99581.27;2122098;84;20958;-82
2022/01/02 01:51:46;;;;;;;15.20;9.70;;;;;;;7.15;92.78;99569.12;2122542;84;20969;-83
2022/01/02 01:54:47;;;;;;;14.67;9.60;;;;;;;7.15;92.72;99565.64;2123293;84;20989;-84
2022/01/02 01:57:48;;;;;;;11.83;9.63;;;;;;;7.14;92.82;99566.47;2123142;84;21077;-84
2022/01/02 02:00:48;;;;;;;12.93;9.17;;;;;;;7.14;92.84;99558.67;2122859;84;20981;-85
2022/01/02 02:03:49;;;;;;;13.07;9.67;;;;;;;7.13;92.80;99554.31;2122623;84;21032;-83
2022/01/02 02:06:54;;;;;;;10.47;9.00;;;;;;;7.11;92.85;99554.25;2096663;84;21061;-84
2022/01/02 02:10:11;;;;;;;12.00;9.30;;;;;;;7.11;92.89;99547.77;2119003;84;20986;-83
2022/01/02 02:13:02;;;;;;;12.47;9.40;;;;;;;7.10;92.88;99546.41;2117807;84;21041;-83
2022/01/02 02:16:02;;;;;;;12.30;9.13;;;;;;;7.11;93.05;99535.20;2119672;84;21412;-84
2022/01/02 02:19:03;;;;;;;11.73;9.20;;;;;;;7.11;93.02;99536.08;2129964;83;21044;-84
2022/01/02 02:22:03;;;;;;;14.17;10.13;;;;;;;7.10;93.01;99532.13;2129723;83;20965;-84
2022/01/02 02:28:09;;;;;;;13.70;9.63;;;;;;;7.11;93.06;99521.80;2101281;84;21060;-85
2022/01/02 02:31:10;;;;;;;13.23;10.07;;;;;;;7.14;93.15;99522.33;2128835;83;21032;-85
2022/01/02 02:34:10;;;;;;;14.23;10.67;;;;;;;7.15;93.05;99515.01;2129414;84;21176;-85
2022/01/02 02:37:11;;;;;;;12.70;10.60;;;;;;;7.14;93.01;99519.31;2129821;84;21028;-84
2022/01/02 02:40:11;;;;;;;14.27;10.73;;;;;;;7.17;93.08;99513.34;2128990;84;21004;-84
2022/01/02 02:43:27;;;;;;;12.70;10.30;;;;;;;7.21;93.17;99507.02;2129565;83;21373;-85
2022/01/02 02:49:42;;;;;;;16.37;11.13;;;;;;;7.26;92.97;99505.47;2130057;83;20984;-86
2022/01/02 02:52:46;;;;;;;15.60;11.73;;;;;;;7.28;92.89;99509.42;2129713;83;21012;-84
2022/01/02 02:55:47;;;;;;;19.23;12.23;;;;;;;7.29;92.84;99503.40;2129227;84;21039;-85
2022/01/02 02:58:49;;;;;;;19.37;12.77;;;;;;;7.30;92.78;99502.16;2129344;84;21044;-84
2022/01/02 03:01:51;;;;;;;18.53;12.37;;;;;;;7.32;92.66;99494.42;2129818;84;21005;-85
2022/01/02 03:04:52;;;;;;;19.77;12.20;;;;;;;7.31;92.56;99488.75;2130771;83;21447;-84
2022/01/02 03:07:53;;;;;;;19.77;14.00;;;;;;;7.29;92.61;99473.53;2122914;84;21084;-85
2022/01/02 03:10:54;;;;;;;19.87;13.77;;;;;;;7.27;92.62;99465.69;2120252;84;21026;-85
2022/01/02 03:13:54;;;;;;;20.03;13.67;;;;;;;7.27;92.72;99467.41;2120039;83;20977;-86
2022/01/02 03:16:55;;;;;;;22.60;14.67;;;;;;;7.29;92.85;99483.92;2119989;83;21000;-84
2022/01/02 03:19:55;;;;;;;24.70;15.53;;;;;;;7.32;92.80;99489.22;2119704;84;20993;-85
2022/01/02 03:22:56;;;;;;;26.30;15.30;;;;;;;7.32;92.84;99488.80;2120190;84;20985;-86
2022/01/02 03:25:56;;;;;;;24.30;14.77;;;;;;;7.39;92.77;99489.02;2119244;84;20972;-84
2022/01/02 03:28:57;;;;;;;23.17;16.07;;;;;;;7.37;92.76;99478.58;2119366;84;20993;-85
2022/01/02 03:31:57;;;;;;;24.53;15.87;;;;;;;7.37;92.58;99469.48;2118898;84;21005;-84
2022/01/02 03:34:58;;;;;;;28.13;16.40;;;;;;;7.36;92.66;99489.80;2118746;84;21377;-84
2022/01/02 03:37:58;;;;;;;26.07;15.73;;;;;;;7.38;92.58;99484.23;2118728;84;21026;-83
2022/01/02 03:41:01;;;;;;;24.03;16.00;;;;;;;7.38;92.39;99492.45;2095873;84;20996;-84
2022/01/02 03:44:01;;;;;;;28.47;16.37;;;;;;;7.37;92.37;99489.38;2118319;84;21051;-84
2022/01/02 03:47:02;;;;;;;22.40;15.80;;;;;;;7.40;92.37;99492.08;2118420;84;20996;-83
2022/01/02 03:50:03;;;;;;;24.63;14.83;;;;;;;7.45;92.52;99490.11;2118946;84;20973;-83
2022/01/02 03:53:03;;;;;;;24.13;16.00;;;;;;;7.48;92.25;99469.85;2118785;83;21012;-83
2022/01/02 03:56:04;;;;;;;31.67;16.73;;;;;;;7.46;92.12;99449.02;2119324;84;20965;-83
2022/01/02 03:59:04;;;;;;;26.80;16.40;;;;;;;7.48;92.03;99448.66;2119158;84;20972;-82
2022/01/02 04:02:05;;;;;;;28.53;16.63;;;;;;;7.46;92.03;99441.64;2118768;84;21384;-82
2022/01/02 04:05:05;;;;;;;29.37;17.20;;;;;;;7.43;91.95;99443.72;2119243;84;21424;-83
2022/01/02 04:08:06;;;;;;;29.83;16.43;;;;;;;7.40;92.02;99422.84;2119231;84;21040;-82
2022/01/02 04:11:06;;;;;;;30.97;17.93;;;;;;;7.39;92.04;99422.79;2119437;83;21020;-83
2022/01/02 04:14:07;;;;;;;30.10;17.77;;;;;;;7.39;92.19;99427.56;2119479;84;20997;-83
2022/01/02 04:17:07;;;;;;;25.90;17.10;;;;;;;7.40;92.20;99428.45;2119758;84;21009;-84
2022/01/02 04:20:08;;;;;;;29.80;18.50;;;;;;;7.40;92.18;99419.36;2119403;84;20992;-83
2022/01/02 04:23:10;;;;;;;35.43;18.83;;;;;;;7.42;92.15;99425.48;2099347;84;21042;-84
2022/01/02 04:32:19;;;;;;;30.10;17.93;;;;;;;7.40;92.28;99397.28;2117645;84;21032;-83
2022/01/02 04:35:19;;;;;;;27.87;18.17;;;;;;;7.40;92.36;99396.87;2118846;84;20996;-84
2022/01/02 04:38:20;;;;;;;29.53;18.57;;;;;;;7.39;92.35;99391.20;2118860;84;21411;-84
2022/01/02 04:41:24;;;;;;;31.93;18.70;;;;;;;7.40;92.41;99388.19;2120026;84;21029;-84
2022/01/02 04:44:24;;;;;;;34.63;18.53;;;;;;;7.41;92.52;99383.05;2120016;83;21024;-83
2022/01/02 04:47:25;;;;;;;32.23;18.77;;;;;;;7.43;92.54;99390.89;2119860;84;20985;-84
2022/01/02 04:50:25;;;;;;;31.80;19.13;;;;;;;7.48;92.60;99374.63;2119984;84;21021;-84
2022/01/02 04:56:28;;;;;;;31.17;19.33;;;;;;;7.55;92.47;99371.80;2117468;84;20981;-84
2022/01/02 04:59:31;;;;;;;30.30;19.10;;;;;;;7.58;92.33;99375.39;2098042;84;21251;-84
2022/01/02 05:02:32;;;;;;;30.07;18.13;;;;;;;7.60;92.34;99371.13;2119579;84;20969;-83
2022/01/02 05:08:35;;;;;;;33.17;20.00;;;;;;;7.62;92.52;99355.16;2113318;84;21017;-84
2022/01/02 05:11:36;;;;;;;31.80;20.73;;;;;;;7.65;92.52;99358.27;2128624;84;21000;-83
2022/01/02 05:14:36;;;;;;;33.13;19.20;;;;;;;7.67;92.52;99352.70;2128399;83;21000;-83
2022/01/02 05:17:37;;;;;;;32.53;20.13;;;;;;;7.70;92.54;99345.42;2128771;84;20975;-81
2022/01/02 05:20:37;;;;;;;35.13;21.63;;;;;;;7.72;92.59;99339.86;2128740;83;20961;-82
2022/01/02 05:23:38;;;;;;;37.10;20.57;;;;;;;7.74;92.65;99337.77;2128584;83;21026;-81
2022/01/02 05:26:38;;;;;;;36.07;20.57;;;;;;;7.75;92.66;99330.44;2128597;83;21348;-82
2022/01/02 05:29:42;;;;;;;38.43;21.43;;;;;;;7.75;92.93;99318.75;2128510;84;21133;-81
2022/01/02 05:32:42;;;;;;;39.40;21.70;;;;;;;7.76;92.84;99311.83;2128472;83;20984;-82
2022/01/02 05:35:43;;;;;;;40.37;23.07;;;;;;;7.76;92.91;99308.81;2128058;84;21448;-81
2022/01/02 05:42:00;;;;;;;33.50;21.90;;;;;;;7.86;92.94;99290.09;2293583;77;22926;-80
2022/01/02 05:45:01;;;;;;;38.63;23.40;;;;;;;7.82;92.88;99285.64;2242616;79;20999;-82
2022/01/02 05:48:01;;;;;;;38.60;24.27;;;;;;;7.81;92.84;99278.68;2242786;79;21310;-83
2022/01/02 05:51:02;;;;;;;38.63;21.97;;;;;;;7.84;92.84;99277.89;2243838;79;21011;-82
2022/01/02 05:54:02;;;;;;;42.20;23.90;;;;;;;7.85;92.81;99278.35;2242549;79;20952;-82
2022/01/02 05:57:03;;;;;;;40.30;24.00;;;;;;;7.83;92.80;99252.73;2243084;79;20928;-83
2022/01/02 06:00:03;;;;;;;40.77;24.50;;;;;;;7.82;92.78;99241.88;2243073;79;21365;-83
2022/01/02 06:03:04;;;;;;;41.67;24.13;;;;;;;7.83;92.78;99234.55;2243632;79;20928;-84
2022/01/02 06:06:04;;;;;;;37.13;25.10;;;;;;;7.81;92.85;99234.92;2243120;79;20921;-83
2022/01/02 06:09:05;;;;;;;40.37;24.77;;;;;;;7.80;93.01;99240.53;2243559;79;20920;-83
2022/01/02 06:12:06;;;;;;;45.17;27.40;;;;;;;7.80;93.08;99227.92;2243452;79;21095;-83
2022/01/02 06:15:06;;;;;;;44.63;27.20;;;;;;;7.81;93.22;99229.30;2243656;79;20907;-83
2022/01/02 06:18:07;;;;;;;49.23;29.03;;;;;;;7.83;93.21;99226.33;2243641;79;20908;-84
2022/01/02 06:21:07;;;;;;;45.17;27.17;;;;;;;7.85;93.19;99227.67;2243662;79;21007;-83
2022/01/02 06:24:08;;;;;;;55.87;29.53;;;;;;;7.85;93.38;99226.38;2243639;79;20964;-83
2022/01/02 06:27:08;;;;;;;54.77;30.87;;;;;;;7.85;93.40;99212.08;2243386;79;20911;-84
2022/01/02 06:30:09;;;;;;;56.23;31.27;;;;;;;7.86;93.58;99217.73;2243552;79;20931;-83
2022/01/02 06:33:10;;;;;;;59.40;32.03;;;;;;;7.91;93.70;99214.44;2242802;79;20990;-84
2022/01/02 06:36:10;;;;;;;56.87;33.00;;;;;;;7.94;93.66;99217.53;2242685;79;20987;-84
2022/01/02 06:39:10;;;;;;;61.23;34.77;;;;;;;7.95;93.52;99214.09;2242775;79;20947;-83
2022/01/02 06:42:11;;;;;;;65.17;34.37;;;;;;;7.97;93.63;99213.72;2258831;79;20976;-83
2022/01/02 06:45:12;;;;;;;62.37;34.27;;;;;;;8.00;93.67;99206.01;2258819;79;20964;-84
2022/01/02 06:48:15;;;;;;;68.60;37.77;;;;;;;8.02;93.58;99212.55;2258384;79;20967;-83
2022/01/02 06:51:16;;;;;;;66.70;35.40;;;;;;;8.03;93.66;99205.21;2258517;79;20975;-83
2022/01/02 06:54:16;;;;;;;66.87;36.03;;;;;;;8.06;93.64;99190.58;2257294;79;21262;-84
2022/01/02 06:57:17;;;;;;;73.90;38.80;;;;;;;8.08;93.79;99188.91;2257261;79;21026;-82
2022/01/02 07:00:17;;;;;;;75.00;37.53;;;;;;;8.09;93.68;99176.78;2256489;79;20991;-83
2022/01/02 07:03:18;;;;;;;75.40;39.53;;;;;;;8.10;93.69;99171.63;2256799;79;20936;-84
2022/01/02 07:06:18;;;;;;;74.03;38.03;;;;;;;8.13;93.61;99182.10;2256552;79;20933;-83
2022/01/02 07:09:19;;;;;;;72.60;38.97;;;;;;;8.13;93.54;99170.41;2258280;79;21000;-84
2022/01/02 07:12:19;;;;;;;77.10;38.70;;;;;;;8.15;93.50;99157.44;2258216;79;20893;-84
2022/01/02 07:15:20;;;;;;;65.90;35.73;;;;;;;8.13;93.41;99150.02;2257905;79;20983;-83
2022/01/02 07:18:21;;;;;;;70.53;35.50;;;;;;;8.13;93.33;99149.60;2257676;79;20912;-84
2022/01/02 07:21:22;;;;;;;75.53;38.67;;;;;;;8.09;93.25;99145.58;2257773;79;20980;-84
2022/01/02 07:24:23;;;;;;;67.80;35.33;;;;;;;8.08;93.31;99143.82;2258059;79;20940;-84
2022/01/02 07:27:23;;;;;;;68.60;36.53;;;;;;;8.08;93.27;99139.92;2256814;79;21418;-84
2022/01/02 07:30:24;;;;;;;62.03;34.80;;;;;;;8.04;93.17;99136.78;2229252;79;20924;-84
2022/01/02 07:33:24;;;;;;;63.70;35.30;;;;;;;8.02;93.00;99138.45;2257512;79;20960;-84
2022/01/02 07:36:25;;;;;;;66.10;36.90;;;;;;;8.00;93.20;99129.31;2257336;79;20968;-84
2022/01/02 07:39:25;;;;;;;62.87;34.13;;;;;;;7.97;93.14;99135.31;2257653;78;21058;-82
2022/01/02 07:42:26;;;;;;;72.77;35.67;;;;;;;7.97;93.17;99126.22;2229668;78;21086;-84
2022/01/02 07:45:26;;;;;;;64.90;34.37;;;;;;;7.99;93.19;99127.14;2229589;79;20975;-84
2022/01/02 07:48:27;;;;;;;61.03;33.50;;;;;;;8.02;93.11;99115.94;2228982;79;20929;-84
2022/01/02 07:51:27;;;;;;;58.53;33.30;;;;;;;8.09;93.16;99115.68;2229206;79;20929;-84
2022/01/02 07:54:28;;;;;;;60.70;32.97;;;;;;;8.10;92.80;99110.94;2228361;79;20933;-84
2022/01/02 07:57:29;;;;;;;57.60;33.83;;;;;;;8.12;92.63;99111.44;2228757;79;20991;-83
2022/01/02 08:00:29;;;;;;;55.90;31.33;;;;;;;8.13;92.76;99098.90;2229105;80;21043;-83
2022/01/02 08:03:30;;;;;;;58.20;32.23;;;;;;;8.16;92.76;99082.08;2228446;79;20940;-84
2022/01/02 08:06:30;;;;;;;58.50;32.50;;;;;;;8.17;92.98;99075.16;2229156;79;20957;-83
2022/01/02 08:09:31;;;;;;;52.87;32.83;;;;;;;8.22;92.89;99077.02;2229055;79;20881;-83
2022/01/02 08:12:32;;;;;;;59.30;33.27;;;;;;;8.25;92.96;99066.70;2228590;79;21027;-83
2022/01/02 08:15:32;;;;;;;54.93;32.30;;;;;;;8.35;93.07;99061.75;2228658;80;21264;-83
2022/01/02 08:18:33;;;;;;;59.23;32.53;;;;;;;8.40;92.89;99051.03;2228220;79;21316;-84
2022/01/02 08:21:33;;;;;;;58.17;33.40;;;;;;;8.44;92.77;99052.87;2228611;79;20960;-83
2022/01/02 08:24:34;;;;;;;55.77;33.03;;;;;;;8.49;92.73;99052.12;2228487;79;21004;-83
2022/01/02 08:27:34;;;;;;;50.17;28.07;;;;;;;8.54;92.49;99047.03;2228113;79;20908;-82
2022/01/02 08:30:35;;;;;;;59.20;32.90;;;;;;;8.56;92.45;99041.44;2227733;79;21359;-85
2022/01/02 08:33:35;;;;;;;58.83;34.20;;;;;;;8.54;92.35;99032.72;2227914;79;21327;-82
2022/01/02 08:36:35;;;;;;;55.50;32.17;;;;;;;8.54;92.37;99040.53;2227886;79;20995;-82
2022/01/02 08:39:36;;;;;;;52.33;32.30;;;;;;;8.56;92.50;99038.84;2228715;79;21019;-83
2022/01/02 08:42:36;;;;;;;55.43;31.57;;;;;;;8.58;92.61;99045.84;2228668;78;21043;-84
2022/01/02 08:45:38;;;;;;;54.50;33.43;;;;;;;8.60;92.50;99051.08;2228979;79;21292;-84
2022/01/02 08:48:38;;;;;;;52.30;32.50;;;;;;;8.60;92.60;99045.88;2229316;79;20937;-84
2022/01/02 08:51:39;;;;;;;51.03;31.43;;;;;;;8.64;92.66;99045.09;2228143;79;21339;-83
2022/01/02 08:54:39;;;;;;;50.17;30.60;;;;;;;8.67;92.79;99045.59;2227924;79;20924;-83
2022/01/02 08:57:40;;;;;;;51.03;30.73;;;;;;;8.69;92.64;99036.12;2229023;79;20967;-83
2022/01/02 09:00:40;;;;;;;51.57;30.57;;;;;;;8.68;92.62;99032.64;2228068;79;20987;-83
2022/01/02 09:03:41;;;;;;;50.70;29.53;;;;;;;8.65;92.48;99023.44;2229771;79;20920;-83
2022/01/02 09:06:42;;;;;;;50.67;30.20;;;;;;;8.67;92.37;99015.27;2229867;80;20921;-83
2022/01/02 09:09:43;;;;;;;53.83;31.27;;;;;;;8.72;92.30;99014.95;2229536;79;20944;-84
2022/01/02 09:12:44;;;;;;;50.07;29.70;;;;;;;8.75;92.14;99005.91;2228866;79;20992;-84
2022/01/02 09:15:44;;;;;;;50.37;28.20;;;;;;;8.80;92.04;99006.88;2229216;79;21317;-84
2022/01/02 09:18:45;;;;;;;48.43;29.43;;;;;;;8.84;91.92;99000.02;2229220;80;20981;-83
2022/01/02 09:21:45;;;;;;;46.50;28.40;;;;;;;8.91;91.81;99004.51;2229246;79;20948;-84
2022/01/02 09:24:46;;;;;;;46.27;28.07;;;;;;;9.01;91.61;98999.06;2229016;79;20983;-84
2022/01/02 09:27:46;;;;;;;45.43;29.90;;;;;;;9.06;91.34;99003.52;2228722;80;20928;-84
2022/01/02 09:30:47;;;;;;;45.07;28.73;;;;;;;9.14;91.39;98994.13;2228110;79;20959;-84
2022/01/02 09:33:48;;;;;;;46.57;27.57;;;;;;;9.23;91.32;98985.20;2226652;80;20987;-82
2022/01/02 09:36:48;;;;;;;43.23;29.37;;;;;;;9.30;90.79;98972.30;2226052;79;20964;-82
2022/01/02 09:39:49;;;;;;;47.23;27.73;;;;;;;9.37;90.70;98969.83;2225975;79;21050;-83
2022/01/02 09:42:49;;;;;;;43.13;27.60;;;;;;;9.47;90.73;98963.05;2259085;78;21038;-83
2022/01/02 09:45:50;;;;;;;46.40;28.30;;;;;;;9.58;90.58;98974.16;2261873;79;21301;-83
2022/01/02 09:48:50;;;;;;;41.00;25.43;;;;;;;9.68;90.16;98971.28;2264023;79;20924;-83
2022/01/02 09:51:51;;;;;;;43.43;28.33;;;;;;;9.78;90.23;98964.50;2263846;79;20920;-82
2022/01/02 09:54:51;;;;;;;45.20;28.70;;;;;;;9.86;89.89;98962.47;2263190;79;20936;-83
2022/01/02 09:57:53;;;;;;;41.57;25.83;;;;;;;9.95;89.53;98960.87;2262870;79;20979;-83
2022/01/02 10:00:54;;;;;;;40.70;26.27;;;;;;;9.97;89.31;98965.25;2263127;78;21007;-83
2022/01/02 10:03:57;;;;;;;43.17;27.07;;;;;;;10.31;90.09;98967.98;2263000;79;20924;-82
2022/01/02 10:06:58;;;;;;;35.93;23.67;;;;;;;10.24;88.92;98960.05;2263087;78;21016;-82
2022/01/02 10:10:01;;;;;;;27.97;19.63;;;;;;;10.18;88.36;98957.77;2263164;79;21296;-82
2022/01/02 10:13:01;;;;;;;21.60;15.53;;;;;;;10.12;87.78;98947.23;2262303;79;21106;-81
2022/01/02 10:16:02;;;;;;;23.03;16.30;;;;;;;10.07;87.28;98941.07;2261690;79;20940;-82
2022/01/02 10:19:02;;;;;;;22.53;15.90;;;;;;;10.06;87.50;98924.97;2261321;79;20924;-82
2022/01/02 10:22:03;;;;;;;18.67;13.53;;;;;;;10.10;87.33;98916.34;2261600;79;20963;-82
2022/01/02 10:25:03;;;;;;;18.03;13.20;;;;;;;10.15;86.51;98903.36;2262889;79;20947;-82
2022/01/02 10:28:04;;;;;;;14.53;11.47;;;;;;;10.17;86.94;98911.66;2262957;79;20979;-81
2022/01/02 10:31:04;;;;;;;14.95;10.85;;;;;;;10.24;86.53;98901.34;2262565;79;20983;-81
2022/01/02 10:34:05;;;;;;;11.80;9.98;;;;;;;10.29;85.78;98892.73;2263228;79;20960;-82
2022/01/02 10:37:05;;;;;;;14.18;10.28;;;;;;;10.30;84.55;98880.13;2262966;79;20924;-82
2022/01/02 10:40:06;;;;;;;17.17;11.40;;;;;;;10.32;85.46;98866.68;2262914;79;21359;-82
2022/01/02 10:43:06;;;;;;;14.87;11.03;;;;;;;10.37;84.56;98870.22;2229286;78;21023;-81
2022/01/02 10:46:07;;;;;;;15.13;10.95;;;;;;;10.40;84.81;98864.17;2227842;79;20991;-81
2022/01/02 10:49:07;;;;;;;18.45;11.10;;;;;;;10.44;83.88;98851.64;2228010;79;20944;-81
2022/01/02 10:52:08;;;;;;;18.37;11.00;;;;;;;10.51;83.85;98853.47;2228013;79;21288;-80
2022/01/02 10:55:09;;;;;;;17.70;10.33;;;;;;;10.61;84.06;98853.15;2228334;79;20932;-81
2022/01/02 10:58:10;;;;;;;13.73;9.97;;;;;;;10.72;83.65;98845.89;2228336;80;20992;-82
2022/01/02 11:01:11;;;;;;;15.68;9.15;;;;;;;10.79;80.77;98842.91;2228424;79;21008;-82
2022/01/02 11:04:11;;;;;;;11.50;8.50;;;;;;;10.81;82.54;98823.80;2228963;79;20963;-81
2022/01/02 11:07:13;;;;;;;14.78;9.45;;;;;;;10.81;79.88;98824.22;2228271;79;20908;-81
2022/01/02 11:10:13;;;;;;;13.48;9.65;;;;;;;10.79;81.64;98809.84;2228270;79;21024;-82
2022/01/02 11:13:14;;;;;;;16.93;10.67;;;;;;;10.78;80.85;98798.08;2228259;79;20983;-82
2022/01/02 11:16:14;;;;;;;16.50;10.33;;;;;;;10.75;80.69;98804.58;2228427;80;21332;-82
2022/01/02 11:19:15;;;;;;;18.53;10.93;;;;;;;10.67;80.13;98804.50;2229147;79;20932;-82
2022/01/02 11:22:15;;;;;;;19.93;11.17;;;;;;;10.55;79.52;98803.48;2228096;79;20960;-81
2022/01/02 11:25:16;;;;;;;17.23;11.13;;;;;;;10.53;80.14;98800.43;2228361;79;21328;-83
2022/01/02 11:28:16;;;;;;;15.40;10.38;;;;;;;10.53;79.87;98789.12;2228574;79;20916;-82
2022/01/02 11:31:17;;;;;;;19.30;11.87;;;;;;;10.54;80.09;98784.34;2228416;79;21402;-81
2022/01/02 11:34:17;;;;;;;17.73;11.57;;;;;;;10.53;80.50;98789.12;2228455;79;21324;-81
2022/01/02 11:37:18;;;;;;;20.15;11.38;;;;;;;10.51;80.83;98785.19;2228156;79;20952;-80
2022/01/02 11:40:18;;;;;;;16.77;11.27;;;;;;;10.50;81.15;98780.83;2227103;79;21038;-81
2022/01/02 11:43:19;;;;;;;21.47;12.17;;;;;;;10.47;79.66;98782.52;2225594;78;21027;-82
2022/01/02 11:46:19;;;;;;;19.30;11.23;;;;;;;10.44;80.62;98775.97;2226695;79;21382;-82
2022/01/02 11:49:20;;;;;;;17.33;11.30;;;;;;;10.45;81.12;98772.50;2227104;79;20960;-82
2022/01/02 11:52:22;;;;;;;18.40;11.57;;;;;;;10.41;80.71;98775.50;2227086;79;20987;-82
2022/01/02 11:55:22;;;;;;;20.03;12.27;;;;;;;10.41;80.78;98771.59;2227496;79;20961;-81
2022/01/02 11:58:23;;;;;;;18.73;11.70;;;;;;;10.47;81.05;98771.66;2228417;79;20913;-82
2022/01/02 12:01:23;;;;;;;19.70;11.53;;;;;;;10.58;81.18;98773.08;2227384;79;21925;-83
2022/01/02 12:04:24;;;;;;;15.47;10.87;;;;;;;10.67;80.57;98777.09;2228419;79;21015;-83
2022/01/02 12:07:25;;;;;;;22.73;11.97;;;;;;;10.71;79.89;98767.13;2228463;80;20975;-83
2022/01/02 12:10:31;;;;;;;17.17;10.75;;;;;;;10.76;80.48;98751.07;2228429;79;20893;-81
2022/01/02 12:13:31;;;;;;;15.20;10.20;;;;;;;10.77;80.61;98754.56;2228817;79;21427;-83
2022/01/02 12:16:31;;;;;;;16.60;9.70;;;;;;;10.81;80.39;98744.59;2227567;80;20937;-83
2022/01/02 12:19:32;;;;;;;12.63;9.30;;;;;;;10.83;79.73;98738.52;2228562;79;21350;-83
2022/01/02 12:22:32;;;;;;;15.63;9.95;;;;;;;10.84;79.69;98726.34;2228359;79;20931;-82
2022/01/02 12:25:33;;;;;;;14.38;9.38;;;;;;;10.89;80.09;98726.38;2228595;79;20940;-82
2022/01/02 12:28:33;;;;;;;14.13;9.05;;;;;;;10.98;79.75;98723.41;2228710;79;20924;-83
2022/01/02 12:31:34;;;;;;;14.28;8.60;;;;;;;11.03;79.86;98711.70;2228944;79;20921;-82
2022/01/02 12:34:34;;;;;;;15.73;9.03;;;;;;;11.02;78.74;98712.55;2228843;79;20960;-83
2022/01/02 12:37:35;;;;;;;15.07;8.93;;;;;;;11.01;78.38;98704.28;2229234;80;20873;-83
2022/01/02 12:40:36;;;;;;;14.13;8.05;;;;;;;10.95;78.49;98705.53;2229106;79;20943;-82
2022/01/02 12:43:36;;;;;;;12.40;8.43;;;;;;;10.95;78.90;98705.10;2261222;78;21414;-82
2022/01/02 12:46:45;;;;;;;14.07;7.90;;;;;;;10.97;79.01;98709.03;2263633;79;20952;-82
2022/01/02 12:49:47;;;;;;;14.13;8.03;;;;;;;10.96;78.60;98702.94;2264189;79;20893;-82
2022/01/02 12:52:47;;;;;;;11.28;7.40;;;;;;;10.92;78.86;98698.55;2263892;78;21011;-83
2022/01/02 12:55:48;;;;;;;12.43;7.35;;;;;;;10.92;78.32;98695.94;2263498;79;21029;-82
2022/01/02 12:58:48;;;;;;;12.13;8.17;;;;;;;10.85;78.04;98702.84;2263926;79;20916;-82
2022/01/02 13:01:49;;;;;;;13.68;8.63;;;;;;;10.80;78.98;98686.27;2263247;79;20960;-82
2022/01/02 13:04:50;;;;;;;10.23;7.60;;;;;;;10.77;79.20;98678.84;2262196;79;20960;-81
2022/01/02 13:07:50;;;;;;;12.47;7.57;;;;;;;10.73;79.00;98676.64;2262879;79;20947;-82
2022/01/02 13:10:51;;;;;;;11.80;7.43;;;;;;;10.69;79.16;98678.78;2263644;79;20951;-82
2022/01/02 13:13:52;;;;;;;11.93;8.30;;;;;;;10.67;78.53;98672.67;2262423;79;21429;-83
2022/01/02 13:16:52;;;;;;;9.93;7.53;;;;;;;10.60;79.34;98667.38;2263995;79;20885;-81
2022/01/02 13:19:53;;;;;;;13.73;8.40;;;;;;;10.54;79.29;98665.59;2263237;79;20966;-82
2022/01/02 13:22:53;;;;;;;17.90;9.50;;;;;;;10.53;79.57;98650.80;2263305;79;20909;-82
2022/01/02 13:25:54;;;;;;;13.17;8.77;;;;;;;10.49;79.61;98652.50;2262485;79;20968;-82
2022/01/02 13:28:54;;;;;;;15.90;9.50;;;;;;;10.44;79.79;98661.15;2261446;79;20998;-82
2022/01/02 13:31:55;;;;;;;11.10;7.67;;;;;;;10.42;79.95;98672.88;2262591;79;21367;-81
2022/01/02 13:34:56;;;;;;;12.60;8.47;;;;;;;10.38;79.72;98682.80;2263159;79;21683;-81
2022/01/02 13:37:56;;;;;;;15.63;8.20;;;;;;;10.32;79.74;98680.13;2263216;79;20889;-81
2022/01/02 13:40:57;;;;;;;16.83;9.80;;;;;;;10.27;79.84;98674.00;2262564;79;20995;-81
2022/01/02 13:43:57;;;;;;;18.97;11.17;;;;;;;10.24;80.04;98663.96;2228726;78;21011;-81
2022/01/02 13:46:58;;;;;;;14.87;9.33;;;;;;;10.22;80.29;98654.81;2228435;79;20952;-81
2022/01/02 13:49:59;;;;;;;16.73;8.57;;;;;;;10.19;80.28;98649.10;2227856;79;20956;-83
2022/01/02 13:53:00;;;;;;;13.50;8.53;;;;;;;10.15;80.19;98653.84;2228820;79;20987;-82
2022/01/02 13:56:01;;;;;;;12.97;8.17;;;;;;;10.13;80.33;98654.69;2228351;79;20948;-82
2022/01/02 13:59:01;;;;;;;16.03;8.37;;;;;;;10.08;80.32;98653.33;2228484;80;20936;-82
2022/01/02 14:02:02;;;;;;;17.07;8.50;;;;;;;10.03;80.03;98647.19;2227958;79;20956;-83
2022/01/02 14:05:03;;;;;;;13.63;8.70;;;;;;;9.96;80.41;98647.11;2229417;79;20988;-82
2022/01/02 14:08:05;;;;;;;14.73;8.60;;;;;;;9.91;80.35;98645.76;2217170;80;20944;-83
2022/01/02 14:11:06;;;;;;;12.00;8.60;;;;;;;9.87;80.61;98647.88;2228887;80;20964;-82
2022/01/02 14:14:11;;;;;;;10.93;7.97;;;;;;;9.84;80.60;98649.16;2228773;79;20940;-82
2022/01/02 14:17:16;;;;;;;15.23;8.90;;;;;;;9.81;80.72;98649.12;2228697;79;21044;-82
2022/01/02 14:20:11;;;;;;;13.10;8.87;;;;;;;9.78;80.74;98659.51;2227089;79;21126;-82
2022/01/02 14:23:11;;;;;;;15.73;9.07;;;;;;;9.75;81.03;98648.62;2227695;79;20948;-82